createdAt,value
2019-02-04T00:00:30.265Z,88.65
2019-02-04T00:03:03.816Z,88.26
2019-02-04T00:05:36.911Z,88.53
2019-02-04T00:08:08.619Z,88.70
2019-02-04T00:10:40.119Z,88.36
2019-02-04T00:13:17.399Z,88.88
2019-02-04T00:15:49.048Z,88.24
2019-02-04T00:18:21.859Z,88.76
2019-02-04T00:20:53.310Z,88.37
2019-02-04T00:23:25.021Z,88.32
2019-02-04T00:26:04.167Z,88.71
2019-02-04T00:28:35.604Z,88.41
2019-02-04T00:31:07.289Z,88.27
2019-02-04T00:33:39.101Z,88.40
2019-02-04T00:36:10.546Z,88.30
2019-02-04T00:38:41.995Z,87.93
2019-02-04T00:41:13.459Z,87.78
2019-02-04T00:43:44.918Z,88.37
2019-02-04T00:46:16.675Z,88.63
2019-02-04T00:48:48.093Z,88.00
2019-02-04T00:51:21.603Z,87.18
2019-02-04T00:53:52.703Z,87.58
2019-02-04T00:56:24.160Z,88.36
2019-02-04T00:58:56.008Z,88.06
2019-02-04T01:01:29.111Z,88.38
2019-02-04T01:04:05.532Z,88.05
2019-02-04T01:06:37.003Z,88.15
2019-02-04T01:09:10.769Z,88.29
2019-02-04T01:11:42.311Z,88.11
2019-02-04T01:14:13.757Z,87.34
2019-02-04T01:16:45.229Z,87.90
2019-02-04T01:19:16.669Z,88.20
2019-02-04T01:21:48.429Z,87.87
2019-02-04T01:24:20.199Z,88.29
2019-02-04T01:26:51.666Z,88.14
2019-02-04T01:29:23.345Z,88.12
2019-02-04T01:31:54.797Z,87.45
2019-02-04T01:34:26.155Z,86.95
2019-02-04T01:36:57.537Z,87.22
2019-02-04T01:39:30.450Z,86.26
2019-02-04T01:42:01.921Z,86.28
2019-02-04T01:44:33.357Z,86.96
2019-02-04T01:47:14.399Z,86.09
2019-02-04T01:49:37.925Z,85.97
2019-02-04T01:52:09.407Z,85.71
2019-02-04T01:54:40.853Z,85.77
2019-02-04T01:57:12.605Z,85.62
2019-02-04T01:59:46.092Z,85.58
2019-02-04T02:02:17.219Z,86.35
2019-02-04T02:04:48.655Z,86.43
2019-02-04T02:07:20.131Z,86.33
2019-02-04T02:09:52.152Z,86.12
2019-02-04T02:12:23.616Z,86.20
2019-02-04T02:14:56.731Z,86.68
2019-02-04T02:17:28.217Z,86.50
2019-02-04T02:19:59.661Z,86.58
2019-02-04T02:22:31.147Z,87.05
2019-02-04T02:25:02.551Z,87.40
2019-02-04T02:27:34.035Z,87.26
2019-02-04T02:30:07.005Z,86.88
2019-02-04T02:32:38.482Z,86.97
2019-02-04T02:35:11.821Z,87.34
2019-02-04T02:37:43.302Z,87.33
2019-02-04T02:40:23.039Z,87.03
2019-02-04T02:42:54.522Z,87.31
2019-02-04T02:45:26.137Z,87.53
2019-02-04T02:47:57.601Z,87.08
2019-02-04T02:50:29.041Z,86.55
2019-02-04T02:53:02.295Z,86.13
2019-02-04T02:55:33.727Z,86.47
2019-02-04T02:58:05.311Z,86.62
2019-02-04T03:00:36.747Z,86.51
2019-02-04T03:03:08.825Z,86.92
2019-02-04T03:05:41.015Z,86.96
2019-02-04T03:08:12.486Z,86.83
2019-02-04T03:10:43.897Z,87.28
2019-02-04T03:13:17.345Z,87.20
2019-02-04T03:15:48.823Z,86.59
2019-02-04T03:18:20.798Z,86.84
2019-02-04T03:20:54.928Z,86.41
2019-02-04T03:23:26.393Z,86.39
2019-02-04T03:26:00.597Z,86.97
2019-02-04T03:28:32.243Z,86.83
2019-02-04T03:31:04.149Z,86.31
2019-02-04T03:33:35.600Z,86.74
2019-02-04T03:36:07.036Z,86.53
2019-02-04T03:38:38.481Z,86.84
2019-02-04T03:41:09.994Z,86.70
2019-02-04T03:43:41.430Z,86.93
2019-02-04T03:46:12.856Z,87.07
2019-02-04T03:48:44.300Z,86.67
2019-02-04T03:51:15.708Z,87.15
2019-02-04T03:53:51.630Z,86.89
2019-02-04T03:56:23.157Z,86.72
2019-02-04T03:58:54.640Z,86.98
2019-02-04T04:01:26.276Z,87.07
2019-02-04T04:03:58.240Z,87.04
2019-02-04T04:06:29.616Z,87.16
2019-02-04T04:09:01.212Z,87.01
2019-02-04T04:11:34.385Z,86.14
2019-02-04T04:14:05.951Z,86.33
2019-02-04T04:16:37.316Z,87.39
2019-02-04T04:19:10.499Z,87.03
2019-02-04T04:21:42.061Z,86.88
2019-02-04T04:24:13.502Z,86.78
2019-02-04T04:26:46.394Z,87.14
2019-02-04T04:29:17.892Z,86.92
2019-02-04T04:31:49.636Z,86.21
2019-02-04T04:34:23.874Z,86.86
2019-02-04T04:36:56.570Z,85.98
2019-02-04T04:39:28.011Z,87.06
2019-02-04T04:42:01.087Z,86.74
2019-02-04T04:44:32.776Z,86.21
2019-02-04T04:47:04.230Z,86.61
2019-02-04T04:49:38.408Z,85.98
2019-02-04T04:52:09.838Z,85.81
2019-02-04T04:54:41.570Z,86.26
2019-02-04T04:57:13.035Z,86.21
2019-02-04T04:59:46.762Z,86.46
2019-02-04T05:02:17.903Z,86.62
2019-02-04T05:04:49.339Z,86.91
2019-02-04T05:07:20.996Z,86.90
2019-02-04T05:09:52.447Z,86.87
2019-02-04T05:12:23.891Z,86.76
2019-02-04T05:14:55.352Z,86.70
2019-02-04T05:17:26.774Z,87.23
2019-02-04T05:19:58.615Z,87.20
2019-02-04T05:22:30.032Z,86.97
2019-02-04T05:25:01.496Z,86.73
2019-02-04T05:27:32.994Z,86.24
2019-02-04T05:30:07.706Z,86.77
2019-02-04T05:32:39.148Z,87.02
2019-02-04T05:35:10.828Z,86.81
2019-02-04T05:37:42.246Z,87.02
2019-02-04T05:40:15.830Z,87.18
2019-02-04T05:42:50.930Z,86.48
2019-02-04T05:45:22.532Z,85.98
2019-02-04T05:47:53.949Z,86.59
2019-02-04T05:50:25.412Z,86.92
2019-02-04T05:52:56.840Z,86.15
2019-02-04T05:55:30.489Z,86.15
2019-02-04T05:58:01.711Z,86.94
2019-02-04T06:00:42.398Z,87.07
2019-02-04T06:03:13.815Z,86.91
2019-02-04T06:05:45.560Z,86.37
2019-02-04T06:08:17.023Z,87.35
2019-02-04T06:10:48.487Z,87.16
2019-02-04T06:13:20.000Z,87.25
2019-02-04T06:15:51.458Z,86.67
2019-02-04T06:18:23.185Z,86.92
2019-02-04T06:20:54.711Z,86.89
2019-02-04T06:23:26.587Z,86.35
2019-02-04T06:25:58.013Z,86.09
2019-02-04T06:28:29.446Z,86.09
2019-02-04T06:31:00.952Z,85.77
2019-02-04T06:33:32.455Z,85.83
2019-02-04T06:36:04.003Z,85.84
2019-02-04T06:38:35.510Z,85.75
2019-02-04T06:41:07.024Z,86.05
2019-02-04T06:43:38.487Z,86.20
2019-02-04T06:46:10.984Z,86.30
2019-02-04T06:48:43.888Z,86.90
2019-02-04T06:51:15.839Z,86.10
2019-02-04T06:53:47.206Z,86.33
2019-02-04T06:56:18.707Z,85.95
2019-02-04T06:58:50.149Z,85.97
2019-02-04T07:01:24.337Z,86.22
2019-02-04T07:03:55.797Z,86.16
2019-02-04T07:06:27.831Z,87.00
2019-02-04T07:08:59.353Z,86.63
2019-02-04T07:11:30.833Z,86.36
2019-02-04T07:14:02.270Z,86.45
2019-02-04T07:16:33.855Z,86.66
2019-02-04T07:19:05.678Z,86.24
2019-02-04T07:21:37.108Z,85.81
2019-02-04T07:24:08.662Z,85.87
2019-02-04T07:26:42.007Z,86.89
2019-02-04T07:29:13.438Z,86.40
2019-02-04T07:31:45.267Z,86.13
2019-02-04T07:34:16.720Z,86.47
2019-02-04T07:36:48.668Z,86.63
2019-02-04T07:39:20.084Z,86.60
2019-02-04T07:41:51.652Z,86.01
2019-02-04T07:44:24.387Z,85.89
2019-02-04T07:46:55.827Z,85.89
2019-02-04T07:49:35.043Z,85.90
2019-02-04T07:52:01.401Z,85.28
2019-02-04T07:54:32.837Z,85.23
2019-02-04T07:57:04.577Z,86.48
2019-02-04T07:59:36.070Z,86.14
2019-02-04T08:02:07.508Z,86.12
2019-02-04T08:04:38.953Z,86.43
2019-02-04T08:07:10.484Z,87.34
2019-02-04T08:09:41.993Z,87.47
2019-02-04T08:12:13.485Z,87.41
2019-02-04T08:14:45.403Z,87.73
2019-02-04T08:17:17.035Z,85.77
2019-02-04T08:19:51.527Z,86.33
2019-02-04T08:22:22.981Z,85.96
2019-02-04T08:24:56.067Z,84.98
2019-02-04T08:27:27.565Z,83.77
2019-02-04T08:29:59.085Z,84.35
2019-02-04T08:32:30.439Z,84.43
2019-02-04T08:35:01.934Z,84.41
2019-02-04T08:37:34.987Z,83.96
2019-02-04T08:40:07.508Z,83.93
2019-02-04T08:42:40.464Z,83.86
2019-02-04T08:45:12.461Z,83.69
2019-02-04T08:47:44.208Z,83.42
2019-02-04T08:50:18.283Z,83.01
2019-02-04T08:52:52.571Z,83.56
2019-02-04T08:55:24.019Z,82.01
2019-02-04T08:57:56.725Z,83.57
2019-02-04T09:00:30.035Z,83.26
2019-02-04T09:03:01.582Z,81.11
2019-02-04T09:05:33.947Z,82.04
2019-02-04T09:08:05.555Z,81.43
2019-02-04T09:10:37.475Z,81.90
2019-02-04T09:13:08.906Z,80.95
2019-02-04T09:15:40.446Z,80.13
2019-02-04T09:18:16.276Z,81.01
2019-02-04T09:20:49.845Z,80.91
2019-02-04T09:23:24.133Z,79.75
2019-02-04T09:25:55.592Z,81.05
2019-02-04T09:28:29.833Z,82.70
2019-02-04T09:31:00.453Z,82.14
2019-02-04T09:33:32.008Z,81.09
2019-02-04T09:36:03.448Z,81.38
2019-02-04T09:38:37.668Z,79.25
2019-02-04T09:41:09.135Z,78.94
2019-02-04T09:43:40.631Z,79.43
2019-02-04T09:46:12.140Z,77.91
2019-02-04T09:48:45.206Z,78.51
2019-02-04T09:51:16.635Z,81.39
2019-02-04T09:53:49.323Z,79.01
2019-02-04T09:56:20.735Z,75.55
2019-02-04T09:58:52.207Z,79.74
2019-02-04T10:01:23.867Z,76.57
2019-02-04T10:03:58.107Z,75.23
2019-02-04T10:06:31.545Z,76.18
2019-02-04T10:09:02.678Z,76.27
2019-02-04T10:11:35.741Z,80.43
2019-02-04T10:14:07.281Z,74.44
2019-02-04T10:16:38.755Z,78.85
2019-02-04T10:19:10.239Z,80.88
2019-02-04T10:21:41.732Z,80.08
2019-02-04T10:24:13.413Z,79.38
2019-02-04T10:26:44.928Z,76.91
2019-02-04T10:29:16.438Z,80.44
2019-02-04T10:31:48.050Z,76.40
2019-02-04T10:34:19.558Z,76.15
2019-02-04T10:36:53.381Z,76.77
2019-02-04T10:39:24.891Z,77.48
2019-02-04T10:41:56.266Z,77.59
2019-02-04T10:44:27.681Z,78.54
2019-02-04T10:47:01.241Z,77.48
2019-02-04T10:49:32.819Z,78.67
2019-02-04T10:52:04.283Z,77.55
2019-02-04T10:54:35.866Z,78.12
2019-02-04T10:57:09.470Z,76.47
2019-02-04T10:59:41.262Z,74.94
2019-02-04T11:02:12.723Z,75.10
2019-02-04T11:04:44.194Z,78.26
2019-02-04T11:07:17.280Z,75.58
2019-02-04T11:09:48.819Z,75.63
2019-02-04T11:12:20.795Z,74.27
2019-02-04T11:14:52.425Z,74.30
2019-02-04T11:17:23.887Z,76.68
2019-02-04T11:19:55.366Z,74.68
2019-02-04T11:22:26.804Z,74.20
2019-02-04T11:24:58.517Z,76.93
2019-02-04T11:27:29.987Z,77.02
2019-02-04T11:30:01.664Z,76.00
2019-02-04T11:32:35.781Z,76.48
2019-02-04T11:35:07.620Z,76.94
2019-02-04T11:37:39.066Z,76.18
2019-02-04T11:40:11.918Z,77.11
2019-02-04T11:42:43.569Z,78.07
2019-02-04T11:45:15.508Z,75.58
2019-02-04T11:47:47.742Z,76.80
2019-02-04T11:50:19.302Z,75.27
2019-02-04T11:52:50.715Z,77.17
2019-02-04T11:55:22.360Z,76.19
2019-02-04T11:57:53.848Z,76.05
2019-02-04T12:00:29.586Z,77.58
2019-02-04T12:03:01.854Z,75.72
2019-02-04T12:05:36.399Z,75.93
2019-02-04T12:08:08.264Z,77.53
2019-02-04T12:10:47.684Z,75.57
2019-02-04T12:13:19.722Z,76.28
2019-02-04T12:15:54.250Z,76.05
2019-02-04T12:18:25.666Z,75.98
2019-02-04T12:20:57.309Z,77.15
2019-02-04T12:23:30.325Z,77.40
2019-02-04T12:26:01.785Z,76.47
2019-02-04T12:28:33.291Z,73.90
2019-02-04T12:31:09.200Z,76.30
2019-02-04T12:33:40.431Z,74.43
2019-02-04T12:36:12.192Z,75.15
2019-02-04T12:38:43.614Z,75.21
2019-02-04T12:41:15.217Z,75.24
2019-02-04T12:43:46.653Z,76.58
2019-02-04T12:46:18.224Z,76.02
2019-02-04T12:48:49.700Z,74.30
2019-02-04T12:51:33.418Z,72.31
2019-02-04T12:53:56.678Z,71.51
2019-02-04T12:56:28.240Z,73.35
2019-02-04T12:59:00.012Z,71.94
2019-02-04T13:01:31.519Z,75.67
2019-02-04T13:04:03.178Z,75.10
2019-02-04T13:06:34.847Z,74.26
2019-02-04T13:09:10.251Z,74.78
2019-02-04T13:11:41.750Z,75.56
2019-02-04T13:14:13.158Z,76.21
2019-02-04T13:16:44.627Z,75.68
2019-02-04T13:19:16.048Z,74.38
2019-02-04T13:21:47.504Z,73.86
2019-02-04T13:24:19.050Z,74.70
2019-02-04T13:26:50.514Z,75.19
2019-02-04T13:29:23.770Z,74.60
2019-02-04T13:31:55.232Z,74.51
2019-02-04T13:34:26.694Z,74.87
2019-02-04T13:36:58.153Z,75.10
2019-02-04T13:39:29.607Z,77.27
2019-02-04T13:42:01.099Z,75.79
2019-02-04T13:44:32.566Z,75.67
2019-02-04T13:47:07.265Z,76.45
2019-02-04T13:49:38.758Z,75.33
2019-02-04T13:52:15.250Z,75.56
2019-02-04T13:54:46.280Z,76.25
2019-02-04T13:57:18.127Z,76.93
2019-02-04T13:59:49.544Z,74.93
2019-02-04T14:02:21.015Z,73.98
2019-02-04T14:04:53.508Z,74.77
2019-02-04T14:07:25.002Z,75.03
2019-02-04T14:09:59.094Z,74.89
2019-02-04T14:12:29.754Z,74.50
2019-02-04T14:15:01.351Z,76.71
2019-02-04T14:17:33.916Z,74.92
2019-02-04T14:20:11.934Z,74.73
2019-02-04T14:22:43.581Z,74.87
2019-02-04T14:25:15.325Z,75.76
2019-02-04T14:27:46.981Z,76.20
2019-02-04T14:30:25.761Z,75.59
2019-02-04T14:32:57.322Z,77.67
2019-02-04T14:35:30.239Z,74.81
2019-02-04T14:38:01.996Z,75.95
2019-02-04T14:40:33.357Z,78.21
2019-02-04T14:43:35.147Z,78.13
2019-02-04T14:47:03.074Z,77.71
2019-02-04T14:50:23.768Z,77.88
2019-02-04T14:53:55.634Z,78.51
2019-02-04T14:57:27.880Z,79.23
2019-02-04T15:00:45.539Z,79.68
2019-02-04T15:04:17.931Z,79.46
2019-02-04T15:07:49.367Z,79.13
2019-02-04T15:11:09.419Z,80.59
2019-02-04T15:14:46.772Z,81.27
2019-02-04T15:18:02.107Z,78.87
2019-02-04T15:21:43.272Z,80.76
2019-02-04T15:25:20.800Z,79.58
2019-02-04T15:28:44.210Z,79.37
2019-02-04T15:32:29.570Z,80.63
2019-02-04T15:35:52.863Z,80.48
2019-02-04T15:39:05.636Z,79.37
2019-02-04T15:42:31.894Z,79.85
2019-02-04T15:45:57.895Z,79.15
2019-02-04T15:49:07.737Z,81.11
2019-02-04T15:51:56.382Z,79.31
2019-02-04T15:54:28.372Z,78.80
2019-02-04T15:56:59.759Z,80.58
2019-02-04T15:59:31.234Z,79.75
2019-02-04T16:02:05.213Z,80.67
2019-02-04T16:04:37.489Z,79.39
2019-02-04T16:07:13.274Z,79.88
2019-02-04T16:09:44.718Z,79.41
2019-02-04T16:12:18.351Z,80.26
2019-02-04T16:14:49.767Z,81.72
2019-02-04T16:17:21.333Z,81.11
2019-02-04T16:19:54.844Z,80.54
2019-02-04T16:22:26.316Z,80.70
2019-02-04T16:24:58.034Z,82.37
2019-02-04T16:27:29.474Z,81.48
2019-02-04T16:30:00.951Z,83.32
2019-02-04T16:32:34.036Z,81.65
2019-02-04T16:35:06.973Z,80.31
2019-02-04T16:37:38.481Z,81.69
2019-02-04T16:40:12.417Z,81.28
2019-02-04T16:42:43.982Z,79.93
2019-02-04T16:45:16.588Z,79.82
2019-02-04T16:47:49.699Z,81.10
2019-02-04T16:50:24.789Z,82.32
2019-02-04T16:52:56.287Z,81.58
2019-02-04T16:55:27.807Z,81.60
2019-02-04T16:57:59.322Z,80.23
2019-02-04T17:00:32.384Z,81.50
2019-02-04T17:03:03.888Z,82.60
2019-02-04T17:05:35.949Z,83.37
2019-02-04T17:08:09.984Z,82.70
2019-02-04T17:10:41.572Z,82.02
2019-02-04T17:13:15.256Z,82.62
2019-02-04T17:15:46.787Z,81.99
2019-02-04T17:18:20.395Z,81.92
2019-02-04T17:20:51.980Z,83.20
2019-02-04T17:23:23.560Z,83.64
2019-02-04T17:25:55.064Z,82.08
2019-02-04T17:28:27.942Z,82.79
2019-02-04T17:30:59.386Z,82.17
2019-02-04T17:33:30.994Z,82.35
2019-02-04T17:36:02.503Z,82.29
2019-02-04T17:38:37.387Z,82.21
2019-02-04T17:41:08.008Z,83.44
2019-02-04T17:43:39.562Z,82.58
2019-02-04T17:46:14.025Z,82.74
2019-02-04T17:48:49.170Z,82.04
2019-02-04T17:51:20.784Z,81.99
2019-02-04T17:53:52.244Z,83.41
2019-02-04T17:56:28.283Z,83.69
2019-02-04T17:59:02.049Z,83.12
2019-02-04T18:01:33.688Z,83.20
2019-02-04T18:04:05.439Z,82.24
2019-02-04T18:06:36.907Z,82.40
2019-02-04T18:09:10.898Z,82.08
2019-02-04T18:11:42.632Z,82.09
2019-02-04T18:14:15.178Z,82.22
2019-02-04T18:16:46.632Z,81.74
2019-02-04T18:19:18.108Z,81.61
2019-02-04T18:21:49.540Z,81.74
2019-02-04T18:24:21.603Z,81.56
2019-02-04T18:26:53.042Z,81.36
2019-02-04T18:29:24.493Z,81.72
2019-02-04T18:31:57.013Z,82.43
2019-02-04T18:34:28.550Z,82.75
2019-02-04T18:37:00.055Z,81.71
2019-02-04T18:39:31.495Z,83.01
2019-02-04T18:42:03.047Z,83.29
2019-02-04T18:44:34.821Z,82.45
2019-02-04T18:47:06.316Z,82.09
2019-02-04T18:49:37.836Z,82.37
2019-02-04T18:52:09.340Z,82.19
2019-02-04T18:54:41.207Z,82.88
2019-02-04T18:57:13.844Z,83.06
2019-02-04T18:59:45.349Z,83.24
2019-02-04T19:02:16.821Z,83.11
2019-02-04T19:04:48.393Z,83.17
2019-02-04T19:07:19.848Z,83.68
2019-02-04T19:09:51.345Z,83.68
2019-02-04T19:12:22.770Z,83.70
2019-02-04T19:14:54.767Z,83.58
2019-02-04T19:17:26.313Z,84.29
2019-02-04T19:20:03.730Z,85.77
2019-02-04T19:22:35.633Z,84.99
2019-02-04T19:25:09.844Z,84.78
2019-02-04T19:27:44.768Z,84.29
2019-02-04T19:30:29.533Z,83.96
2019-02-04T19:33:01.291Z,83.89
2019-02-04T19:35:35.577Z,84.14
2019-02-04T19:38:07.154Z,84.95
2019-02-04T19:40:38.634Z,85.58
2019-02-04T19:43:10.084Z,85.72
2019-02-04T19:45:41.602Z,85.15
2019-02-04T19:48:14.811Z,85.82
2019-02-04T19:50:46.404Z,86.01
2019-02-04T19:53:18.181Z,87.31
2019-02-04T19:55:52.657Z,85.62
2019-02-04T19:58:24.137Z,84.56
2019-02-04T20:00:58.440Z,83.06
2019-02-04T20:03:29.933Z,84.23
2019-02-04T20:06:01.541Z,84.29
2019-02-04T20:08:33.866Z,85.27
2019-02-04T20:11:07.758Z,83.98
2019-02-04T20:13:40.569Z,83.98
2019-02-04T20:16:14.884Z,83.66
2019-02-04T20:18:46.335Z,84.52
2019-02-04T20:21:17.843Z,84.83
2019-02-04T20:23:49.580Z,85.29
2019-02-04T20:26:26.613Z,84.80
2019-02-04T20:28:54.709Z,85.09
2019-02-04T20:31:26.172Z,85.35
2019-02-04T20:33:57.809Z,84.80
2019-02-04T20:36:29.454Z,85.70
2019-02-04T20:39:04.988Z,85.62
2019-02-04T20:41:37.652Z,84.77
2019-02-04T20:44:09.115Z,85.47
2019-02-04T20:46:40.673Z,85.45
2019-02-04T20:49:13.784Z,85.53
2019-02-04T20:51:45.253Z,86.16
2019-02-04T20:54:19.830Z,85.92
2019-02-04T20:56:50.128Z,85.23
2019-02-04T20:59:22.130Z,85.63
2019-02-04T21:01:53.670Z,84.57
2019-02-04T21:04:25.120Z,84.96
2019-02-04T21:06:57.674Z,85.72
2019-02-04T21:09:29.758Z,86.85
2019-02-04T21:12:01.300Z,85.65
2019-02-04T21:14:33.829Z,85.25
2019-02-04T21:17:05.302Z,85.56
2019-02-04T21:19:36.769Z,85.59
2019-02-04T21:22:08.524Z,85.43
2019-02-04T21:24:41.019Z,85.86
2019-02-04T21:27:12.466Z,86.44
2019-02-04T21:29:44.252Z,85.54
2019-02-04T21:32:17.309Z,85.49
2019-02-04T21:34:49.321Z,84.82
2019-02-04T21:37:20.796Z,84.34
2019-02-04T21:39:52.294Z,83.93
2019-02-04T21:42:23.807Z,83.87
2019-02-04T21:44:55.286Z,84.89
2019-02-04T21:47:27.061Z,84.56
2019-02-04T21:50:00.087Z,84.03
2019-02-04T21:52:31.907Z,84.02
2019-02-04T21:55:11.056Z,84.41
2019-02-04T21:57:38.418Z,84.38
2019-02-04T22:00:14.963Z,85.13
2019-02-04T22:02:47.295Z,85.14
2019-02-04T22:05:20.052Z,85.16
2019-02-04T22:07:51.557Z,84.37
2019-02-04T22:10:25.034Z,84.86
2019-02-04T22:12:56.485Z,85.80
2019-02-04T22:15:28.026Z,84.38
2019-02-04T22:17:59.574Z,84.75
2019-02-04T22:20:31.070Z,84.67
2019-02-04T22:23:02.516Z,85.38
2019-02-04T22:25:34.074Z,84.46
2019-02-04T22:28:05.716Z,84.91
2019-02-04T22:30:37.151Z,85.12
2019-02-04T22:33:08.659Z,85.40
2019-02-04T22:35:40.141Z,84.02
2019-02-04T22:38:11.822Z,83.71
2019-02-04T22:40:43.219Z,82.98
2019-02-04T22:43:14.721Z,83.25
2019-02-04T22:45:46.275Z,82.74
2019-02-04T22:48:17.723Z,82.25
2019-02-04T22:50:49.142Z,82.84
2019-02-04T22:53:20.583Z,82.40
2019-02-04T22:55:52.038Z,81.98
2019-02-04T22:58:23.489Z,82.47
2019-02-04T23:01:36.053Z,83.03
2019-02-04T23:04:10.314Z,82.77
2019-02-04T23:06:43.874Z,84.16
2019-02-04T23:09:15.307Z,84.65
2019-02-04T23:11:47.279Z,82.98
2019-02-04T23:14:18.673Z,84.43
2019-02-04T23:16:50.180Z,83.70
2019-02-04T23:19:21.906Z,83.45
2019-02-04T23:21:53.337Z,82.97
2019-02-04T23:24:24.769Z,82.46
2019-02-04T23:26:56.268Z,82.63
2019-02-04T23:29:27.729Z,83.60
2019-02-04T23:31:59.752Z,81.99
2019-02-04T23:34:31.201Z,82.23
2019-02-04T23:37:05.545Z,82.54
2019-02-04T23:39:38.765Z,81.60
2019-02-04T23:42:10.509Z,82.12
2019-02-04T23:44:41.933Z,82.31
2019-02-04T23:47:15.021Z,83.26
2019-02-04T23:49:46.487Z,83.05
2019-02-04T23:52:17.934Z,82.92
2019-02-04T23:54:51.031Z,82.65
2019-02-04T23:57:23.689Z,82.21
2019-02-04T23:59:55.059Z,82.45
